McKean County Weather on FaceBook
Current Metar reports for airports in our Region

Nearby METAR Reports

Metar reports(Meteorological Terminal Aviation Routine) are mainly used by pilots for information on what is happening at their destination during their pre-flight weather briefings and by meteorologists to assist in short term forecasts. A raw Metar is one of the most universal ways to communicate weather information in the world and are usually transmitted by airports, but some come from permanent sanctioned weather observatories.

Listed below are Metars from airports within 100 miles of our station here in Smethport Pa. The first one of course is the Bradford Regional Airport, then the Olean NY airport and so on. Each airport has it's own table to display it's data and at the bottom of the table is 'Raw' Metar for each airport. Most pilots and weather forecasters can look at the raw data and tell you what is up, but we use a script that handles all of the details for us.

KBFD - Bradford, Pennsylvania, USA
Distance from station: NW 7mi, 11km
Updated: Mon, 25-Jan-2021 2:53am EST
Overcast
Overcast
 Wind from calm
Wind: Calm
Temperature: 21°F , -6°C
Dew Point: 10°F , -12°C
Humidity: 63%
Barometer: 30.01 inHg , 1016.3 hPa
Clouds: Overcast
Visibility: 10 miles , 16 km
Cloud details: Overcast 6000 ft
2021/01/25 07:53 KBFD 250753Z AUTO 00000KT 10SM OVC060 M06/M12 A3001 RMK AO2 SLP188 T10611117
KOLE - Olean, New York, USA
Distance from station: NNE 37mi, 59km
Updated: Mon, 25-Jan-2021 2:55am EST
Clear
Clear
 Wind from calm
Wind: Calm
Temperature: 18°F , -8°C
Dew Point: 9°F , -13°C
Humidity: 68%
Barometer: 30.01 inHg , 1016.3 hPa
Clouds: Clear
Visibility: 10 miles , 16 km
2021/01/25 07:55 KOLE 250755Z AUTO 00000KT 10SM CLR M08/M13 A3001 RMK AO2
 
KELZ - Wellsville, New York, USA
Distance from station: NE 40mi, 64km
Updated: Mon, 25-Jan-2021 2:56am EST
Overcast
Overcast
 Wind from calm
Wind: Calm
Temperature: 14°F , -10°C
Dew Point: 10°F , -12°C
Humidity: 85%
Barometer: 30.03 inHg , 1016.9 hPa
Clouds: Overcast
Visibility: 10 miles , 16 km
Cloud details: Overcast 5500 ft
2021/01/25 07:56 KELZ 250756Z AUTO 00000KT 10SM OVC055 M10/M12 A3003 RMK AO2 SLP204 T11001122 $
KDUJ - Du Bois, Pennsylvania, USA
Distance from station: SSW 42mi, 68km
Updated: Mon, 25-Jan-2021 2:53am EST
Overcast
Overcast
 Wind from E
Wind: E 5 mph , 7 km/h
Temperature: 27°F , -3°C
Wind Chill: 21°F , -6°C
Dew Point: 16°F , -9°C
Humidity: 64%
Barometer: 30.00 inHg , 1015.9 hPa
Clouds: Overcast
Visibility: 10 miles , 16 km
Cloud details: Overcast 4800 ft
2021/01/25 07:53 KDUJ 250753Z AUTO 08004KT 10SM OVC048 M03/M09 A3000 RMK AO2 SLP182 T10331089
 
KJHW - Jamestown, New York, USA
Distance from station: NW 46mi, 75km
Updated: Mon, 25-Jan-2021 2:56am EST
Few Clouds
Few Clouds
 Wind from calm
Wind: Calm
Temperature: 19°F , -7°C
Dew Point: 16°F , -9°C
Humidity: 86%
Barometer: 30.04 inHg , 1017.3 hPa
Clouds: Few Clouds
Visibility: 10 miles , 16 km
Cloud details: Few Clouds 6000 ft
2021/01/25 07:56 KJHW 250756Z AUTO 00000KT 10SM FEW060 M07/M09 A3004 RMK AO2 SLP202 T10721094 FZRANO
KFIG - Clearfield, Pennsylvania, USA
Distance from station: S 47mi, 75km
Updated: Mon, 25-Jan-2021 2:54am EST
Overcast
Overcast
 Wind from ENE
Wind: ENE 5 mph , 7 km/h
Temperature: 27°F , -3°C
Wind Chill: 21°F , -6°C
Dew Point: 14°F , -10°C
Humidity: 59%
Barometer: 30.04 inHg , 1017.3 hPa
Clouds: Overcast
Visibility: 10 miles , 16 km
Cloud details: Overcast 2400 ft
2021/01/25 07:54 KFIG 250754Z AUTO 06004KT 10SM OVC024 M03/M10 A3004 RMK AO2 SLP191 T10331100
 
KDKK - Dunkirk, New York, USA
Distance from station: NW 66mi, 106km
Updated: Mon, 25-Jan-2021 2:53am EST
Partly Cloudy
Partly Cloudy
 Wind from SE
Wind: SE 5 mph , 7 km/h
Temperature: 12°F , -11°C
Wind Chill: 4°F , -16°C
Dew Point: 9°F , -13°C
Humidity: 85%
Barometer: 30.10 inHg , 1019.3 hPa
Clouds: Partly Cloudy
Visibility: 10 miles , 16 km
Cloud details: Partly Cloudy 7000 ft
2021/01/25 07:53 KDKK 250753Z AUTO 14004KT 10SM SCT070 M11/M13 A3010 RMK AO2 SLP205 T11111133
KUNV - State College, Pennsylvania, USA
Distance from station: SSE 71mi, 114km
Updated: Mon, 25-Jan-2021 2:55am EST
Overcast
Overcast
 Wind from calm
Wind: Calm
Temperature: 28°F , -2°C
Dew Point: 14°F , -10°C
Humidity: 55%
Barometer: 30.07 inHg , 1018.3 hPa
Clouds: Overcast
Visibility: 10 miles , 16 km
Cloud details: Overcast 2500 ft
2021/01/25 07:55 KUNV 250755Z AUTO 00000KT 10SM OVC025 M02/M10 A3007 RMK AO2 T10211102
 
KFKL - Franklin, Pennsylvania, USA
Distance from station: WSW 72mi, 116km
Updated: Mon, 25-Jan-2021 2:56am EST
Overcast
Overcast
 Wind from NE
Wind: NE 3 mph , 6 km/h
Temperature: 25°F , -4°C
Dew Point: 19°F , -7°C
Humidity: 80%
Barometer: 30.04 inHg , 1017.3 hPa
Clouds: Overcast
Visibility: 10 miles , 16 km
Cloud details: Overcast 5000 ft
2021/01/25 07:56 KFKL 250756Z AUTO 04003KT 10SM OVC050 M04/M07 A3004 RMK AO2 SLP194 T10441067 FZRANO
KDSV - Dansville, New York, USA
Distance from station: NE 73mi, 117km
Updated: Mon, 25-Jan-2021 2:54am EST
Clear
Clear
 Wind from SSE
Wind: SSE 8 mph , 13 km/h
Temperature: 18°F , -8°C
Wind Chill: 8°F , -13°C
Dew Point: 10°F , -12°C
Humidity: 73%
Barometer: 30.12 inHg , 1020 hPa
Clouds: Clear
Visibility: 10 miles , 16 km
2021/01/25 07:54 KDSV 250754Z AUTO 15007KT 10SM CLR M08/M12 A3012 RMK AO2 SLP218 T10781122 $
 
KIDI - Indiana/Stewart, Pennsylvania, USA
Distance from station: SSW 81mi, 130km
Updated: Mon, 25-Jan-2021 2:55am EST
Overcast
Overcast
 Wind from E
Wind: E 3 mph , 6 km/h
Temperature: 28°F , -2°C
Dew Point: 27°F , -3°C
Humidity: 93%
Barometer: 30.06 inHg , 1017.9 hPa
Clouds: Overcast
Visibility: 10 miles , 16 km
Cloud details: Mostly Cloudy 1600 ft
Overcast 4100 ft
2021/01/25 07:55 KIDI 250755Z AUTO 10003KT 10SM BKN016 OVC041 M02/M03 A3006 RMK A01
KBUF - Buffalo/Cheektow, New York, USA
Distance from station: N 84mi, 136km
Updated: Mon, 25-Jan-2021 2:54am EST
Overcast
Overcast
 Wind from SSE
Wind: SSE 5 mph , 7 km/h
Temperature: 23°F , -5°C
Wind Chill: 17°F , -8°C
Dew Point: 12°F , -11°C
Humidity: 63%
Barometer: 30.10 inHg , 1019.3 hPa
Clouds: Overcast
Visibility: 10 miles , 16 km
Cloud details: Overcast 6000 ft
2021/01/25 07:54 KBUF 250754Z 15004KT 10SM OVC060 M05/M11 A3010 RMK AO2 SLP204 T10501106 $
 
KGKJ - Meadville, Pennsylvania, USA
Distance from station: W 86mi, 138km
Updated: Mon, 25-Jan-2021 2:53am EST
Overcast
Overcast
 Wind from E
Wind: E 3 mph , 6 km/h
Temperature: 25°F , -4°C
Dew Point: 19°F , -7°C
Humidity: 80%
Barometer: 30.03 inHg , 1016.9 hPa
Clouds: Overcast
Visibility: 10 miles , 16 km
Cloud details: Mostly Cloudy 2900 ft
Overcast 5000 ft
2021/01/25 07:53 KGKJ 250753Z AUTO 10003KT 10SM BKN029 OVC050 M04/M07 A3003 RMK AO2 SLP189 T10441072
KERI - Erie, Pennsylvania, USA
Distance from station: WNW 87mi, 140km
Updated: Mon, 25-Jan-2021 2:51am EST
Overcast
Overcast
 Wind from calm
Wind: Calm
Temperature: 25°F , -4°C
Dew Point: 19°F , -7°C
Humidity: 80%
Barometer: 30.08 inHg , 1018.6 hPa
Clouds: Overcast
Visibility: 10 miles , 16 km
Cloud details: Overcast 6500 ft
2021/01/25 07:51 KERI 250751Z AUTO 00000KT 10SM OVC065 M04/M07 A3008 RMK AO2 SLP197 T10391072
 
KELM - Elmira, New York, USA
Distance from station: ENE 90mi, 145km
Updated: Mon, 25-Jan-2021 2:53am EST
Overcast
Overcast
 Wind from calm
Wind: Calm
Temperature: 14°F , -10°C
Dew Point: 9°F , -13°C
Humidity: 79%
Barometer: 30.12 inHg , 1020 hPa
Clouds: Overcast
Visibility: 10 miles , 16 km
Cloud details: Overcast 3800 ft
2021/01/25 07:53 KELM 250753Z AUTO 00000KT 10SM OVC038 M10/M13 A3012 RMK AO2 SLP216 T11001128
KIPT - Williamsport, Pennsylvania, USA
Distance from station: ESE 91mi, 146km
Updated: Mon, 25-Jan-2021 2:54am EST
Overcast
Overcast
 Wind from NE
Wind: NE 3 mph , 6 km/h
Temperature: 27°F , -3°C
Dew Point: 10°F , -12°C
Humidity: 50%
Barometer: 30.13 inHg , 1020.3 hPa
Clouds: Overcast
Visibility: 10 miles , 16 km
Cloud details: Overcast 6000 ft
2021/01/25 07:54 KIPT 250754Z AUTO 05003KT 10SM OVC060 M03/M12 A3013 RMK AO2 SLP211 T10331117
 
KBTP - Butler Co., Pennsylvania, USA
Distance from station: SW 98mi, 157km
Updated: Mon, 25-Jan-2021 2:56am EST
Overcast
Overcast
 Wind from calm
Wind: Calm
Temperature: 25°F , -4°C
Dew Point: 23°F , -5°C
Humidity: 93%
Barometer: 30.04 inHg , 1017.3 hPa
Clouds: Overcast
Visibility: 10 miles , 16 km
Cloud details: Overcast 1300 ft
2021/01/25 07:56 KBTP 250756Z AUTO 00000KT 10SM OVC013 M04/M05 A3004 RMK AO2 SNE05 SLP196 P0000 T10391050 FZRANO
KAOO - Altoona, Pennsylvania, USA
Distance from station: S 99mi, 159km
Updated: Mon, 25-Jan-2021 2:53am EST
Mist, Overcast
Mist, Overcast
 Wind from calm
Wind: Calm
Temperature: 25°F , -4°C
Dew Point: 21°F , -6°C
Humidity: 86%
Barometer: 30.05 inHg , 1017.6 hPa
Summary: Mist
Clouds: Overcast
Visibility: 6 miles , 10 km
Cloud details: Few Clouds 2300 ft
Overcast 4200 ft
2021/01/25 07:53 KAOO 250753Z AUTO 00000KT 6SM BR FEW023 OVC042 M04/M06 A3005 RMK AO2 SNE52 SLP194 P0001 T10391061
 
KPIT - Pittsburg, Pennsylvania, USA
Distance from station: SSW 126mi, 203km
Updated: Mon, 25-Jan-2021 2:51am EST
Overcast
Overcast
 Wind from calm
Wind: Calm
Temperature: 27°F , -3°C
Dew Point: 21°F , -6°C
Humidity: 80%
Barometer: 30.03 inHg , 1016.9 hPa
Clouds: Overcast
Visibility: 8 miles , 13 km
Cloud details: Mostly Cloudy 1200 ft
Overcast 3000 ft
2021/01/25 07:51 KPIT 250751Z 00000KT 8SM BKN012 OVC030 M03/M06 A3003 RMK AO2 SLP192 T10331056 $
KCLE - Cleveland, Ohio, USA
Distance from station: WSW 160mi, 258km
Updated: Mon, 25-Jan-2021 2:51am EST
Overcast
Overcast
 Wind from calm
Wind: Calm
Temperature: 28°F , -2°C
Dew Point: 21°F , -6°C
Humidity: 74%
Barometer: 30.06 inHg , 1017.9 hPa
Clouds: Overcast
Visibility: 10 miles , 16 km
Cloud details: Partly Cloudy 1600 ft
Overcast 4000 ft
2021/01/25 07:51 KCLE 250751Z 00000KT 10SM SCT016 OVC040 M02/M06 A3006 RMK AO2 SLP204 T10221056